Terminal Aerodrome Forecast
Issued by NWS Twin Cities, MN

Home | Current Version | Previous Version | Text Only | Print | Product List | Glossary Off
Versions: 1 2 3 4 5 6 7 8 9 10 11 12 13 14 15

000
FTUS43 KMPX 130300 AAA
TAFEAU
TAF AMD
KEAU 130300Z 1303/1324 VRB02KT 5SM BR BKN070
      TEMPO 1303/1306 2SM BR
     FM130600 29002KT 2SM BR SKC
      TEMPO 1309/1313 1SM BR
     FM131400 24003KT P6SM SKC
     FM131700 21009G14KT P6SM SCT050=

USA.gov is the U.S. government's official web portal to all federal, state and local government web resources and services.